Time;durP1;ratioP1;P1;durP2;ratioP2;P2;SDS_P1;SDS_P2;PMS_P1;PMS_P2;Temp;Humidity;BMP_temperature;BMP_pressure;BME280_temperature;BME280_humidity;BME280_pressure;Samples;Min_cycle;Max_cycle;Signal;HPM_P1;HPM_P2
2023/07/25 00:00:40;;;;;;;23.70;22.80;;;23.80;97.50;;;;;;5051269;28;20527;-60
2023/07/25 00:03:09;;;;;;;22.40;21.60;;;23.80;97.60;;;;;;5051114;28;20997;-60
2023/07/25 00:05:36;;;;;;;23.37;22.47;;;23.80;97.50;;;;;;5051094;28;20509;-58
2023/07/25 00:08:03;;;;;;;22.73;21.93;;;23.80;97.70;;;;;;5050488;28;20455;-60
2023/07/25 00:10:30;;;;;;;22.80;22.00;;;23.80;97.60;;;;;;5051155;28;20527;-60
2023/07/25 00:12:57;;;;;;;24.10;23.20;;;23.80;97.60;;;;;;5051128;28;20440;-58
2023/07/25 00:15:23;;;;;;;24.30;23.40;;;23.70;97.60;;;;;;5051073;28;20476;-60
2023/07/25 00:17:51;;;;;;;24.10;23.10;;;23.80;97.70;;;;;;5050420;28;20519;-60
2023/07/25 00:20:19;;;;;;;22.97;22.10;;;23.80;97.60;;;;;;5050853;28;20479;-59
2023/07/25 00:22:46;;;;;;;23.67;22.77;;;23.80;97.60;;;;;;5050908;28;20575;-60
2023/07/25 00:25:13;;;;;;;25.40;24.50;;;23.80;97.60;;;;;;5050866;28;20535;-60
2023/07/25 00:27:40;;;;;;;24.67;23.67;;;23.80;97.60;;;;;;5050414;28;20531;-60
2023/07/25 00:30:08;;;;;;;24.03;23.13;;;23.70;97.60;;;;;;5050798;28;20526;-60
2023/07/25 00:32:35;;;;;;;23.33;22.43;;;23.70;97.50;;;;;;5050898;28;21027;-58
2023/07/25 00:35:02;;;;;;;22.70;21.80;;;23.70;97.50;;;;;;5050935;28;20476;-60
2023/07/25 00:37:31;;;;;;;23.47;22.53;;;23.70;97.50;;;;;;5047819;28;20487;-61
2023/07/25 00:39:58;;;;;;;23.30;22.40;;;23.70;97.40;;;;;;5030867;28;20544;-61
2023/07/25 00:42:25;;;;;;;23.13;22.23;;;23.70;97.50;;;;;;5030827;28;20535;-60
2023/07/25 00:44:52;;;;;;;23.07;22.27;;;23.70;97.50;;;;;;5034425;28;20544;-61
2023/07/25 00:47:20;;;;;;;22.83;22.00;;;23.70;97.60;;;;;;5034195;28;20481;-60
2023/07/25 00:49:48;;;;;;;22.37;21.57;;;23.70;97.60;;;;;;5034331;28;20557;-60
2023/07/25 00:52:15;;;;;;;23.53;22.73;;;23.70;97.50;;;;;;5034330;28;20463;-58
2023/07/25 00:54:48;;;;;;;24.13;23.27;;;23.70;97.50;;;;;;5034354;28;20548;-60
2023/07/25 00:57:17;;;;;;;23.30;22.40;;;23.70;97.40;;;;;;5033878;28;20512;-59
2023/07/25 00:59:44;;;;;;;23.03;22.13;;;23.70;97.40;;;;;;5034062;28;20476;-59
2023/07/25 01:02:12;;;;;;;24.33;23.43;;;23.70;97.40;;;;;;5034040;28;20516;-59
2023/07/25 01:04:40;;;;;;;27.87;26.83;;;23.70;97.40;;;;;;5034166;28;20962;-60
2023/07/25 01:07:08;;;;;;;23.70;22.73;;;23.70;97.40;;;;;;5045588;28;20539;-59
2023/07/25 01:09:36;;;;;;;24.10;23.00;;;23.70;97.50;;;;;;5053702;28;20547;-60
2023/07/25 01:12:05;;;;;;;23.40;22.50;;;23.70;97.50;;;;;;5053934;28;20467;-59
2023/07/25 01:14:32;;;;;;;24.53;23.33;;;23.70;97.40;;;;;;5053793;28;20480;-60
2023/07/25 01:17:00;;;;;;;22.50;21.60;;;23.70;97.40;;;;;;5046310;28;20449;-58
2023/07/25 01:19:30;;;;;;;23.10;22.20;;;23.60;97.30;;;;;;5043833;28;21003;-60
2023/07/25 01:21:58;;;;;;;22.50;21.60;;;23.60;97.30;;;;;;5051835;28;20503;-59
2023/07/25 01:24:26;;;;;;;23.00;22.10;;;23.60;97.30;;;;;;5053667;28;20981;-60
2023/07/25 01:26:53;;;;;;;22.60;21.70;;;23.60;97.30;;;;;;5043329;28;20441;-60
2023/07/25 01:29:20;;;;;;;22.40;21.50;;;23.60;97.30;;;;;;5033507;28;20496;-59
2023/07/25 01:31:47;;;;;;;23.20;22.30;;;23.60;97.30;;;;;;5033628;28;20488;-59
2023/07/25 01:34:14;;;;;;;22.60;21.70;;;23.60;97.20;;;;;;5033550;28;20449;-60
2023/07/25 01:36:40;;;;;;;21.80;20.80;;;23.60;97.20;;;;;;5033152;28;20484;-60
2023/07/25 01:39:07;;;;;;;22.77;21.83;;;23.60;97.20;;;;;;5033336;28;20499;-58
2023/07/25 01:41:36;;;;;;;22.57;21.67;;;23.60;97.20;;;;;;5033286;28;20456;-59
2023/07/25 01:44:03;;;;;;;23.33;22.37;;;23.60;97.20;;;;;;5034434;28;20535;-59
2023/07/25 01:46:29;;;;;;;22.57;21.67;;;23.60;97.10;;;;;;5033518;28;20548;-60
2023/07/25 01:48:56;;;;;;;24.33;23.33;;;23.60;97.10;;;;;;5033201;28;20552;-59
2023/07/25 01:51:23;;;;;;;23.03;22.13;;;23.60;97.10;;;;;;5033336;28;20913;-60
2023/07/25 01:53:50;;;;;;;24.23;23.23;;;23.60;97.10;;;;;;5032869;28;20548;-59
2023/07/25 01:56:17;;;;;;;22.30;21.20;;;23.60;97.00;;;;;;5032241;28;20548;-58
2023/07/25 01:58:45;;;;;;;22.70;21.80;;;23.60;97.00;;;;;;5032971;28;20511;-59
2023/07/25 02:01:12;;;;;;;22.50;21.60;;;23.60;97.00;;;;;;5035495;28;20527;-59
2023/07/25 02:03:39;;;;;;;23.13;22.23;;;23.60;97.00;;;;;;5052999;28;20570;-60
2023/07/25 02:06:06;;;;;;;22.90;21.90;;;23.60;96.90;;;;;;5052785;28;20487;-58
2023/07/25 02:08:33;;;;;;;22.93;21.83;;;23.60;96.90;;;;;;5052765;28;20465;-58
2023/07/25 02:11:00;;;;;;;24.10;23.10;;;23.60;96.90;;;;;;5052366;28;20479;-60
2023/07/25 02:13:27;;;;;;;22.63;21.73;;;23.60;96.90;;;;;;5032894;28;20524;-60
2023/07/25 02:15:55;;;;;;;23.47;22.47;;;23.60;96.90;;;;;;5032969;28;21018;-59
2023/07/25 02:18:22;;;;;;;23.57;22.57;;;23.50;96.70;;;;;;5032306;28;20509;-61
2023/07/25 02:20:49;;;;;;;23.63;22.63;;;23.60;96.70;;;;;;5032705;28;20537;-61
2023/07/25 02:23:15;;;;;;;23.37;22.37;;;23.60;96.70;;;;;;5032544;28;21077;-61
2023/07/25 02:25:42;;;;;;;25.13;24.03;;;23.60;96.70;;;;;;5032637;28;20524;-60
2023/07/25 02:28:09;;;;;;;23.90;22.90;;;23.50;97.00;;;;;;5033639;28;20892;-61
2023/07/25 02:30:36;;;;;;;22.93;22.03;;;23.50;96.50;;;;;;5052399;28;20509;-59
2023/07/25 02:33:04;;;;;;;22.90;21.87;;;23.50;96.50;;;;;;5052561;28;20528;-60
2023/07/25 02:35:31;;;;;;;23.47;22.27;;;23.50;96.50;;;;;;5052418;28;20789;-59
2023/07/25 02:37:58;;;;;;;23.93;22.73;;;23.50;96.50;;;;;;5052025;28;20527;-60
2023/07/25 02:40:25;;;;;;;24.10;23.10;;;23.50;96.50;;;;;;5051331;28;20467;-60
2023/07/25 02:42:53;;;;;;;22.43;21.40;;;23.50;96.40;;;;;;5052155;28;20583;-60
2023/07/25 02:45:19;;;;;;;23.70;22.70;;;23.50;96.30;;;;;;5052379;28;20754;-59
2023/07/25 02:47:46;;;;;;;24.03;23.03;;;23.50;96.30;;;;;;5052084;28;20483;-60
2023/07/25 02:50:14;;;;;;;24.40;23.30;;;23.50;96.30;;;;;;5034011;28;20557;-59
2023/07/25 02:52:42;;;;;;;22.97;21.97;;;23.50;96.20;;;;;;5032298;28;20862;-61
2023/07/25 02:55:09;;;;;;;22.70;21.80;;;23.50;96.20;;;;;;5032195;28;20524;-60
2023/07/25 02:57:36;;;;;;;24.13;23.13;;;23.50;96.20;;;;;;5031905;28;20520;-59
2023/07/25 03:00:03;;;;;;;23.83;22.90;;;23.50;96.10;;;;;;5048671;28;20559;-59
2023/07/25 03:02:30;;;;;;;23.17;22.27;;;23.50;96.10;;;;;;5051936;28;20980;-59
2023/07/25 03:04:57;;;;;;;22.57;21.67;;;23.50;96.10;;;;;;5051720;28;20985;-57
2023/07/25 03:07:25;;;;;;;24.43;23.53;;;23.50;96.00;;;;;;5042988;28;20532;-59
2023/07/25 03:09:52;;;;;;;23.10;22.10;;;23.50;96.00;;;;;;5031895;28;20501;-59
2023/07/25 03:12:19;;;;;;;25.43;24.43;;;23.40;95.90;;;;;;5031755;28;20473;-60
2023/07/25 03:14:45;;;;;;;23.20;22.30;;;23.40;96.00;;;;;;5031776;28;20460;-58
2023/07/25 03:17:12;;;;;;;23.03;22.03;;;23.50;96.00;;;;;;5031196;28;20537;-61
2023/07/25 03:19:39;;;;;;;22.60;21.77;;;23.50;95.90;;;;;;5031495;28;20900;-59
2023/07/25 03:22:07;;;;;;;23.97;23.00;;;23.50;95.80;;;;;;5031813;28;20452;-59
2023/07/25 03:24:35;;;;;;;25.53;24.30;;;23.50;95.90;;;;;;5031736;28;20532;-60
2023/07/25 03:27:02;;;;;;;23.70;22.70;;;23.50;95.80;;;;;;5035918;28;20526;-60
2023/07/25 03:29:29;;;;;;;24.23;23.33;;;23.50;95.70;;;;;;5051471;28;21161;-59
2023/07/25 03:31:55;;;;;;;23.00;22.10;;;23.50;95.70;;;;;;5045570;28;20532;-58
2023/07/25 03:34:22;;;;;;;23.70;22.80;;;23.40;95.70;;;;;;5031654;28;20476;-59
2023/07/25 03:36:49;;;;;;;23.70;22.80;;;23.40;95.60;;;;;;5031309;28;20514;-58
2023/07/25 03:39:16;;;;;;;25.30;24.30;;;23.40;95.60;;;;;;5031456;28;20901;-59
2023/07/25 03:41:44;;;;;;;23.83;22.73;;;23.40;95.60;;;;;;5034840;28;20913;-59
2023/07/25 03:44:16;;;;;;;23.20;22.20;;;23.40;95.50;;;;;;5051325;28;20567;-60
2023/07/25 03:46:43;;;;;;;23.10;22.30;;;23.40;95.50;;;;;;5051271;28;20451;-59
2023/07/25 03:49:10;;;;;;;24.47;23.37;;;23.40;95.50;;;;;;5051312;28;20507;-60
2023/07/25 03:51:37;;;;;;;25.10;24.20;;;23.40;95.50;;;;;;5048631;28;20476;-59
2023/07/25 03:54:04;;;;;;;25.23;24.07;;;23.40;95.50;;;;;;5031367;28;20445;-61
2023/07/25 03:56:31;;;;;;;24.40;23.50;;;23.40;95.50;;;;;;5031426;28;21006;-60
2023/07/25 03:59:00;;;;;;;24.33;23.23;;;23.40;95.40;;;;;;5031305;28;20568;-61
2023/07/25 04:01:27;;;;;;;25.80;24.60;;;23.40;95.40;;;;;;5031216;28;20543;-59
2023/07/25 04:03:54;;;;;;;25.40;24.23;;;23.40;95.40;;;;;;5011783;28;20581;-60
2023/07/25 04:06:21;;;;;;;25.13;24.10;;;23.40;95.40;;;;;;5011425;28;20528;-59
2023/07/25 04:08:48;;;;;;;25.30;24.30;;;23.40;95.40;;;;;;5011494;28;20565;-60
2023/07/25 04:11:15;;;;;;;25.13;24.10;;;23.40;95.30;;;;;;5035690;28;20903;-59
2023/07/25 04:13:42;;;;;;;26.03;24.70;;;23.40;95.30;;;;;;5051108;28;20535;-58
2023/07/25 04:16:10;;;;;;;25.07;23.97;;;23.40;95.30;;;;;;5050979;28;20615;-60
2023/07/25 04:18:37;;;;;;;27.07;25.50;;;23.40;95.30;;;;;;5052777;28;20574;-60
2023/07/25 04:21:04;;;;;;;32.60;29.80;;;23.40;95.70;;;;;;5044867;28;20532;-60
2023/07/25 04:23:31;;;;;;;30.33;28.07;;;23.40;98.00;;;;;;5034904;28;20519;-60
2023/07/25 04:25:57;;;;;;;28.97;27.23;;;23.40;99.90;;;;;;5034923;28;20535;-59
2023/07/25 04:28:24;;;;;;;27.50;25.73;;;23.40;99.90;;;;;;5034712;28;20548;-61
2023/07/25 04:30:51;;;;;;;29.47;27.60;;;23.40;99.60;;;;;;5034787;28;20540;-61
2023/07/25 04:33:19;;;;;;;28.63;27.27;;;23.40;99.90;;;;;;5034807;28;20445;-60
2023/07/25 04:35:46;;;;;;;29.10;27.37;;;23.40;99.90;;;;;;5034684;28;20537;-61
2023/07/25 04:38:14;;;;;;;27.90;26.50;;;23.50;99.70;;;;;;5034343;28;20453;-61
2023/07/25 04:40:43;;;;;;;28.07;26.43;;;23.40;99.80;;;;;;5034497;28;20869;-61
2023/07/25 04:43:10;;;;;;;28.83;27.03;;;23.40;99.50;;;;;;5034555;28;20932;-60
2023/07/25 04:45:37;;;;;;;30.33;27.73;;;23.40;99.40;;;;;;5034470;28;20523;-61
2023/07/25 04:48:04;;;;;;;29.43;27.33;;;23.40;99.40;;;;;;5034276;28;20829;-60
2023/07/25 04:50:32;;;;;;;30.30;28.53;;;23.40;99.20;;;;;;5034521;28;20540;-60
2023/07/25 04:52:59;;;;;;;28.73;27.20;;;23.40;99.00;;;;;;5034427;28;20525;-59
2023/07/25 04:55:26;;;;;;;28.03;26.43;;;23.40;98.90;;;;;;5034369;28;20444;-59
2023/07/25 04:57:53;;;;;;;28.53;26.80;;;23.40;98.80;;;;;;5033998;28;20540;-61
2023/07/25 05:00:20;;;;;;;29.87;27.00;;;23.40;98.90;;;;;;5034116;28;20560;-61
2023/07/25 05:02:47;;;;;;;29.53;27.80;;;23.40;98.70;;;;;;5034231;28;21184;-61
2023/07/25 05:05:14;;;;;;;30.60;28.53;;;23.40;98.60;;;;;;5034032;28;21026;-59
2023/07/25 05:07:42;;;;;;;29.33;27.83;;;23.40;98.50;;;;;;5033863;28;20866;-60
2023/07/25 05:10:09;;;;;;;29.60;28.20;;;23.40;98.30;;;;;;5033952;28;20548;-61
2023/07/25 05:12:36;;;;;;;28.70;27.13;;;23.40;98.30;;;;;;5034029;28;20469;-58
2023/07/25 05:15:04;;;;;;;32.37;30.23;;;23.40;98.20;;;;;;5034080;28;20523;-60
2023/07/25 05:17:30;;;;;;;29.23;27.33;;;23.40;98.10;;;;;;5033647;28;20537;-60
2023/07/25 05:19:57;;;;;;;28.83;27.53;;;23.40;98.00;;;;;;5033794;28;20544;-59
2023/07/25 05:22:24;;;;;;;28.70;27.03;;;23.40;98.00;;;;;;5033847;28;20532;-61
2023/07/25 05:24:52;;;;;;;28.73;26.53;;;23.40;97.90;;;;;;5033714;28;20580;-59
2023/07/25 05:27:19;;;;;;;29.00;27.50;;;23.40;97.80;;;;;;5033484;28;20485;-59
2023/07/25 05:29:46;;;;;;;30.53;28.80;;;23.40;97.70;;;;;;5033400;28;20500;-61
2023/07/25 05:32:13;;;;;;;30.03;28.60;;;23.40;97.60;;;;;;5033565;28;20527;-59
2023/07/25 05:34:40;;;;;;;32.47;30.67;;;23.40;97.60;;;;;;5033580;28;20780;-60
2023/07/25 05:37:07;;;;;;;29.63;28.00;;;23.40;97.50;;;;;;5033453;28;20488;-61
2023/07/25 05:39:34;;;;;;;28.27;26.80;;;23.40;97.50;;;;;;5033436;28;20527;-61
2023/07/25 05:42:02;;;;;;;28.70;27.00;;;23.40;97.40;;;;;;5033424;28;20528;-59
2023/07/25 05:44:30;;;;;;;30.17;28.77;;;23.40;97.20;;;;;;5033508;28;20580;-59
2023/07/25 05:46:58;;;;;;;29.87;28.37;;;23.40;97.20;;;;;;5033144;28;20528;-60
2023/07/25 05:49:25;;;;;;;28.83;27.43;;;23.40;97.10;;;;;;5033305;28;20878;-60
2023/07/25 05:51:53;;;;;;;30.77;29.10;;;23.40;97.00;;;;;;5033312;28;21022;-59
2023/07/25 05:54:20;;;;;;;30.80;29.07;;;23.40;96.90;;;;;;5033197;28;20446;-60
2023/07/25 05:56:47;;;;;;;29.03;27.63;;;23.40;96.90;;;;;;5032819;28;20553;-59
2023/07/25 05:59:15;;;;;;;29.10;27.77;;;23.40;97.10;;;;;;5032917;28;20512;-61
2023/07/25 06:01:42;;;;;;;31.40;30.00;;;23.40;96.80;;;;;;5033057;28;21003;-58
2023/07/25 06:04:11;;;;;;;32.17;30.60;;;23.40;96.70;;;;;;5032916;28;20572;-58
2023/07/25 06:06:38;;;;;;;32.97;31.57;;;23.40;96.70;;;;;;5032746;28;20923;-59
2023/07/25 06:09:05;;;;;;;31.20;29.63;;;23.40;96.60;;;;;;5032836;28;20552;-61
2023/07/25 06:11:32;;;;;;;30.43;29.00;;;23.40;96.50;;;;;;5032809;28;20480;-60
2023/07/25 06:13:59;;;;;;;31.33;29.80;;;23.40;96.50;;;;;;5032824;28;20528;-58
2023/07/25 06:16:27;;;;;;;33.17;31.57;;;23.30;96.40;;;;;;5032478;28;21029;-60
2023/07/25 06:18:54;;;;;;;34.13;32.50;;;23.40;96.40;;;;;;5032565;28;20556;-61
2023/07/25 06:21:20;;;;;;;30.50;29.10;;;23.40;96.30;;;;;;5032608;28;20867;-60
2023/07/25 06:23:47;;;;;;;31.47;30.20;;;23.40;96.30;;;;;;5032452;28;21038;-61
2023/07/25 06:26:14;;;;;;;31.30;29.90;;;23.40;96.20;;;;;;5032443;28;20532;-61
2023/07/25 06:28:41;;;;;;;33.20;31.77;;;23.40;96.20;;;;;;5032465;28;20814;-60
2023/07/25 06:31:08;;;;;;;31.77;30.27;;;23.40;96.10;;;;;;5032481;28;20527;-61
2023/07/25 06:33:36;;;;;;;32.00;30.60;;;23.40;96.10;;;;;;5032501;28;20854;-60
2023/07/25 06:36:03;;;;;;;30.17;28.97;;;23.40;96.00;;;;;;5032291;28;21009;-59
2023/07/25 06:38:30;;;;;;;31.47;30.03;;;23.30;95.90;;;;;;5032244;28;20481;-60
2023/07/25 06:40:57;;;;;;;29.73;28.57;;;23.40;96.00;;;;;;5031757;28;20532;-61
2023/07/25 06:43:24;;;;;;;31.77;30.47;;;23.40;96.30;;;;;;5032253;28;20481;-59
2023/07/25 06:45:52;;;;;;;29.60;28.40;;;23.40;95.90;;;;;;5032149;28;20552;-59
2023/07/25 06:48:19;;;;;;;30.43;29.23;;;23.30;95.70;;;;;;5031987;28;20540;-60
2023/07/25 06:50:48;;;;;;;30.77;29.47;;;23.40;95.80;;;;;;5032251;28;20999;-60
2023/07/25 06:53:15;;;;;;;32.73;31.10;;;23.40;95.80;;;;;;5032075;28;20457;-58
2023/07/25 06:55:42;;;;;;;30.73;29.53;;;23.30;95.60;;;;;;5032002;28;20532;-60
2023/07/25 06:58:08;;;;;;;29.80;28.40;;;23.40;95.70;;;;;;5031467;28;20532;-61
2023/07/25 07:00:37;;;;;;;30.13;28.77;;;23.40;95.60;;;;;;5031984;28;20511;-59
2023/07/25 07:03:05;;;;;;;31.03;29.53;;;23.40;95.60;;;;;;5031904;28;20453;-60
2023/07/25 07:05:32;;;;;;;31.00;29.70;;;23.40;95.50;;;;;;5031894;28;20481;-61
2023/07/25 07:08:01;;;;;;;30.23;28.93;;;23.30;95.50;;;;;;5031636;28;20476;-60
2023/07/25 07:10:28;;;;;;;31.30;29.80;;;23.40;95.50;;;;;;5031707;28;20548;-60
2023/07/25 07:12:55;;;;;;;31.27;29.97;;;23.40;95.40;;;;;;5031699;28;20541;-60
2023/07/25 07:15:24;;;;;;;31.07;29.67;;;23.40;95.40;;;;;;5031666;28;20481;-60
2023/07/25 07:17:52;;;;;;;30.70;29.20;;;23.40;95.30;;;;;;5031540;28;20552;-60
2023/07/25 07:20:19;;;;;;;29.73;28.23;;;23.40;95.30;;;;;;5031657;28;20465;-60
2023/07/25 07:22:46;;;;;;;29.67;28.27;;;23.40;95.30;;;;;;5031623;28;20555;-60
2023/07/25 07:25:15;;;;;;;30.87;29.33;;;23.40;95.20;;;;;;5031716;28;20575;-61
2023/07/25 07:27:42;;;;;;;32.17;30.67;;;23.40;95.20;;;;;;5031395;28;20481;-57
2023/07/25 07:30:09;;;;;;;29.33;28.03;;;23.30;95.10;;;;;;5031495;28;20548;-60
2023/07/25 07:32:36;;;;;;;31.60;30.20;;;23.40;95.10;;;;;;5031610;28;20532;-58
2023/07/25 07:35:03;;;;;;;28.73;27.40;;;23.30;95.10;;;;;;5031536;28;20878;-60
2023/07/25 07:37:30;;;;;;;29.30;27.80;;;23.40;95.00;;;;;;5031309;28;20486;-60
2023/07/25 07:39:57;;;;;;;28.43;27.03;;;23.40;95.00;;;;;;5031437;28;20817;-61
2023/07/25 07:42:25;;;;;;;29.00;27.70;;;23.30;94.90;;;;;;5031330;28;20539;-60
2023/07/25 07:44:52;;;;;;;28.30;27.00;;;23.30;94.90;;;;;;5031167;28;20576;-60
2023/07/25 07:47:19;;;;;;;29.00;27.60;;;23.30;94.80;;;;;;5031093;28;20593;-61
2023/07/25 07:49:46;;;;;;;29.10;27.60;;;23.30;94.80;;;;;;5031268;28;20500;-60
2023/07/25 07:52:13;;;;;;;28.47;27.17;;;23.40;94.80;;;;;;5031408;28;20484;-60
2023/07/25 07:54:39;;;;;;;30.10;28.80;;;23.40;94.70;;;;;;5035062;28;20527;-61
2023/07/25 07:57:06;;;;;;;27.07;25.90;;;23.40;94.70;;;;;;5035178;28;20452;-60
2023/07/25 07:59:35;;;;;;;28.10;26.80;;;23.40;94.70;;;;;;5035169;28;20564;-62
2023/07/25 08:02:01;;;;;;;27.43;26.10;;;23.30;94.60;;;;;;5035239;28;20516;-59
2023/07/25 08:04:29;;;;;;;27.57;26.27;;;23.40;94.60;;;;;;5035197;28;20599;-60
2023/07/25 08:06:55;;;;;;;29.33;27.93;;;23.30;94.50;;;;;;5035056;28;20528;-61
2023/07/25 08:09:22;;;;;;;28.07;26.67;;;23.30;94.50;;;;;;5035052;28;20559;-61
2023/07/25 08:11:49;;;;;;;27.87;26.57;;;23.30;94.40;;;;;;5035111;28;20523;-61
2023/07/25 08:14:16;;;;;;;28.43;26.90;;;23.30;94.40;;;;;;5035187;28;20536;-61
2023/07/25 08:16:44;;;;;;;27.27;26.07;;;23.30;94.40;;;;;;5034809;28;20880;-61
2023/07/25 08:19:11;;;;;;;28.30;26.97;;;23.30;94.30;;;;;;5034901;28;20560;-62
2023/07/25 08:21:38;;;;;;;28.83;27.40;;;23.30;94.30;;;;;;5034896;28;20564;-62
2023/07/25 08:24:05;;;;;;;28.00;26.90;;;23.30;94.30;;;;;;5034824;28;20481;-61
2023/07/25 08:26:32;;;;;;;28.87;27.57;;;23.30;94.30;;;;;;5034685;28;20484;-61
2023/07/25 08:28:59;;;;;;;28.50;27.20;;;23.40;94.20;;;;;;5034654;28;20544;-62
2023/07/25 08:31:26;;;;;;;28.07;26.87;;;23.30;94.20;;;;;;5034816;28;20535;-60
2023/07/25 08:33:55;;;;;;;28.37;27.00;;;23.30;94.20;;;;;;5034662;28;20535;-61
2023/07/25 08:36:22;;;;;;;26.83;25.63;;;23.30;94.10;;;;;;5034605;28;20502;-61
2023/07/25 08:38:49;;;;;;;27.50;26.30;;;23.30;94.10;;;;;;5034500;28;20488;-61
2023/07/25 08:41:18;;;;;;;28.03;26.83;;;23.30;94.00;;;;;;5034585;28;20532;-61
2023/07/25 08:43:45;;;;;;;27.63;26.43;;;23.30;94.00;;;;;;5034619;28;20532;-60
2023/07/25 08:46:13;;;;;;;27.67;26.57;;;23.30;93.90;;;;;;5034248;28;20535;-60
2023/07/25 08:48:42;;;;;;;27.07;25.90;;;23.40;94.00;;;;;;5034332;28;20533;-61
2023/07/25 08:51:17;;;;;;;26.70;25.60;;;23.30;93.90;;;;;;5034443;28;20484;-61
2023/07/25 08:53:51;;;;;;;26.97;25.77;;;23.30;93.90;;;;;;5034380;28;20536;-62
2023/07/25 08:56:18;;;;;;;27.40;26.20;;;23.30;93.80;;;;;;5034096;28;20502;-61
2023/07/25 08:58:47;;;;;;;27.57;26.27;;;23.30;93.80;;;;;;5045895;22;20548;-61
2023/07/25 09:01:14;;;;;;;27.83;26.60;;;23.30;93.70;;;;;;5094297;28;20462;-62
2023/07/25 09:03:43;;;;;;;26.60;25.30;;;23.30;93.70;;;;;;5093910;28;20438;-60
2023/07/25 09:06:13;;;;;;;27.73;26.43;;;23.30;93.70;;;;;;5094183;28;20534;-62
2023/07/25 09:08:40;;;;;;;26.60;25.40;;;23.30;93.60;;;;;;5093356;28;20446;-62
2023/07/25 09:11:09;;;;;;;27.03;25.83;;;23.30;93.60;;;;;;5074017;28;20530;-61
2023/07/25 09:13:36;;;;;;;26.70;25.40;;;23.30;93.50;;;;;;5073982;28;20880;-61
2023/07/25 09:16:04;;;;;;;27.30;26.10;;;23.30;93.50;;;;;;5073704;28;20518;-62
2023/07/25 09:18:31;;;;;;;27.30;26.00;;;23.30;93.50;;;;;;5073966;28;20975;-62
2023/07/25 09:20:58;;;;;;;27.67;26.47;;;23.30;93.40;;;;;;5073732;28;20552;-62
2023/07/25 09:23:26;;;;;;;26.77;25.57;;;23.30;93.40;;;;;;5073809;28;20530;-62
2023/07/25 09:26:05;;;;;;;28.33;27.03;;;23.30;93.40;;;;;;5073733;28;20487;-62
2023/07/25 09:28:32;;;;;;;24.88;23.77;;;23.30;93.30;;;;;;5072942;28;20485;-62
2023/07/25 09:31:02;;;;;;;26.70;25.60;;;23.30;93.30;;;;;;5073557;28;20205;-61
2023/07/25 09:33:29;;;;;;;26.00;24.90;;;23.40;93.10;;;;;;5073282;28;20820;-60
2023/07/25 09:35:56;;;;;;;27.00;25.83;;;23.40;93.00;;;;;;5073429;28;20288;-61
2023/07/25 09:38:23;;;;;;;24.95;23.75;;;23.40;92.80;;;;;;5072857;28;20524;-60
2023/07/25 09:40:51;;;;;;;26.33;25.13;;;23.40;92.80;;;;;;5073206;28;20316;-62
2023/07/25 09:43:22;;;;;;;26.83;25.73;;;23.50;92.60;;;;;;5073389;28;20814;-60
2023/07/25 09:45:49;;;;;;;27.30;26.10;;;23.40;92.50;;;;;;5073222;28;20505;-61
2023/07/25 09:48:16;;;;;;;26.23;25.00;;;23.50;92.50;;;;;;5072887;28;20998;-61
2023/07/25 09:50:45;;;;;;;27.73;26.43;;;23.40;92.50;;;;;;5073223;28;20217;-61
2023/07/25 09:53:13;;;;;;;26.60;25.60;;;23.40;92.50;;;;;;5073170;28;20455;-60
2023/07/25 09:55:40;;;;;;;26.80;25.70;;;23.40;92.50;;;;;;5073142;28;20837;-62
2023/07/25 09:58:08;;;;;;;26.50;25.40;;;23.40;92.50;;;;;;5072905;28;20443;-61
2023/07/25 10:00:35;;;;;;;25.40;24.40;;;23.40;92.50;;;;;;5072907;28;20557;-62
2023/07/25 10:03:02;;;;;;;25.50;24.50;;;23.40;92.60;;;;;;5072967;28;20541;-59
2023/07/25 10:05:29;;;;;;;25.90;24.80;;;23.40;92.90;;;;;;5072881;28;20514;-61
2023/07/25 10:07:57;;;;;;;25.40;24.20;;;23.40;92.50;;;;;;5072832;28;20439;-62
2023/07/25 10:10:25;;;;;;;27.20;26.10;;;23.40;92.60;;;;;;5072687;28;20463;-62
2023/07/25 10:12:53;;;;;;;25.80;24.70;;;23.30;92.50;;;;;;5072860;28;20538;-57
2023/07/25 10:15:22;;;;;;;26.23;25.03;;;23.40;92.50;;;;;;5072017;28;20550;-61
2023/07/25 10:17:49;;;;;;;26.80;25.70;;;23.40;92.50;;;;;;5072501;28;20493;-61
2023/07/25 10:20:23;;;;;;;26.23;25.03;;;23.40;92.40;;;;;;5072617;28;20463;-60
2023/07/25 10:22:50;;;;;;;26.33;25.23;;;23.40;92.40;;;;;;5072576;28;20824;-61
2023/07/25 10:25:24;;;;;;;26.87;25.77;;;23.30;92.30;;;;;;5072238;28;20570;-62
2023/07/25 10:27:55;;;;;;;26.93;25.73;;;23.30;92.20;;;;;;5072371;28;20479;-60
2023/07/25 10:30:25;;;;;;;26.33;24.87;;;23.40;92.30;;;;;;5072500;28;20510;-60
2023/07/25 10:32:54;;;;;;;26.77;25.60;;;23.40;92.20;;;;;;5072407;28;20576;-59
2023/07/25 10:35:42;;;;;;;26.63;25.60;;;23.30;92.20;;;;;;5072291;28;20987;-62
2023/07/25 10:38:10;;;;;;;26.60;25.60;;;23.30;92.20;;;;;;5072150;28;20530;-62
2023/07/25 10:40:55;;;;;;;26.50;25.40;;;23.30;92.10;;;;;;5072118;28;20463;-61
2023/07/25 10:43:23;;;;;;;24.80;23.70;;;23.30;92.10;;;;;;5072209;28;20542;-59
2023/07/25 10:45:55;;;;;;;24.63;23.50;;;23.30;92.10;;;;;;5072139;28;20574;-62
2023/07/25 10:48:33;;;;;;;26.00;24.90;;;23.30;92.10;;;;;;5071956;28;20443;-60
2023/07/25 10:51:02;;;;;;;24.87;23.87;;;23.30;92.10;;;;;;5072114;28;20530;-62
2023/07/25 10:53:29;;;;;;;24.90;23.90;;;23.30;92.10;;;;;;5072019;28;20478;-62
2023/07/25 10:56:16;;;;;;;26.77;25.67;;;23.30;92.10;;;;;;5071995;28;20475;-61
2023/07/25 10:59:09;;;;;;;27.07;26.00;;;23.30;92.00;;;;;;5071842;28;20498;-62
2023/07/25 11:01:48;;;;;;;26.00;24.97;;;23.30;92.00;;;;;;5071997;28;20530;-61
2023/07/25 11:04:28;;;;;;;25.50;24.50;;;23.30;91.90;;;;;;5071956;28;20450;-59
2023/07/25 11:06:56;;;;;;;25.23;24.13;;;23.30;92.00;;;;;;5071669;28;20446;-59
2023/07/25 11:09:24;;;;;;;25.97;24.97;;;23.40;92.00;;;;;;5071593;28;20520;-61
2023/07/25 11:11:53;;;;;;;25.87;24.77;;;23.30;91.80;;;;;;5071710;28;20522;-61
2023/07/25 11:14:20;;;;;;;26.67;25.57;;;23.40;91.90;;;;;;5071751;28;20478;-61
2023/07/25 11:16:53;;;;;;;26.87;25.67;;;23.40;91.80;;;;;;5071497;28;20446;-60
2023/07/25 11:19:25;;;;;;;26.00;25.00;;;23.30;91.70;;;;;;5071652;28;20543;-61
2023/07/25 11:21:52;;;;;;;25.57;24.57;;;23.40;91.70;;;;;;5071640;28;20526;-60
2023/07/25 11:24:21;;;;;;;26.27;25.07;;;23.30;91.60;;;;;;5071602;28;20530;-60
2023/07/25 11:26:48;;;;;;;26.13;25.03;;;23.30;91.70;;;;;;5071105;28;20479;-60
2023/07/25 11:29:15;;;;;;;24.90;23.90;;;23.30;91.60;;;;;;5071398;28;20996;-60
2023/07/25 11:31:50;;;;;;;24.90;23.90;;;23.40;91.60;;;;;;5071471;28;20509;-61
2023/07/25 11:34:19;;;;;;;24.57;23.33;;;23.40;91.60;;;;;;5071544;28;20849;-59
2023/07/25 11:36:46;;;;;;;24.97;23.87;;;23.40;91.60;;;;;;5071268;28;20996;-61
2023/07/25 11:39:13;;;;;;;25.80;24.57;;;23.30;91.40;;;;;;5071318;28;20467;-61
2023/07/25 11:41:41;;;;;;;25.87;24.70;;;23.40;91.50;;;;;;5071495;28;20870;-61
2023/07/25 11:44:13;;;;;;;26.93;25.83;;;23.40;91.40;;;;;;5071523;28;20443;-60
2023/07/25 11:46:43;;;;;;;26.50;25.50;;;23.40;91.50;;;;;;5071118;28;20514;-60
2023/07/25 11:49:13;;;;;;;26.03;25.03;;;23.40;91.40;;;;;;5071148;28;20468;-60
2023/07/25 11:51:41;;;;;;;26.27;25.17;;;23.40;91.40;;;;;;5071314;28;20865;-59
2023/07/25 11:54:09;;;;;;;26.50;25.30;;;23.40;91.40;;;;;;5071387;28;20530;-61
2023/07/25 11:56:37;;;;;;;26.33;25.23;;;23.40;91.30;;;;;;5070994;28;20478;-60
2023/07/25 11:59:05;;;;;;;26.90;25.90;;;23.40;91.30;;;;;;5071009;28;20558;-60
2023/07/25 12:01:34;;;;;;;25.70;24.67;;;23.40;91.30;;;;;;5071338;28;20534;-62
2023/07/25 12:04:01;;;;;;;26.30;25.30;;;23.40;91.30;;;;;;5071193;28;20816;-61
2023/07/25 12:06:31;;;;;;;26.40;25.40;;;23.40;91.30;;;;;;5070914;28;20544;-61
2023/07/25 12:08:59;;;;;;;26.03;24.97;;;23.40;91.20;;;;;;5071187;28;20551;-60
2023/07/25 12:11:26;;;;;;;26.10;25.10;;;23.40;91.50;;;;;;5071086;28;20475;-62
2023/07/25 12:13:55;;;;;;;27.27;26.17;;;23.40;91.20;;;;;;5071189;28;20542;-61
2023/07/25 12:16:27;;;;;;;26.90;25.80;;;23.40;91.10;;;;;;5070881;28;20450;-62
2023/07/25 12:18:55;;;;;;;27.47;26.37;;;23.40;91.10;;;;;;5070897;28;21068;-62
2023/07/25 12:21:25;;;;;;;25.17;24.17;;;23.40;91.10;;;;;;5070985;28;20452;-61
2023/07/25 12:23:55;;;;;;;25.57;24.57;;;23.40;91.00;;;;;;5071014;28;20484;-61
2023/07/25 12:26:22;;;;;;;26.73;25.67;;;23.40;91.00;;;;;;5070706;28;20506;-61
2023/07/25 12:28:50;;;;;;;27.40;26.20;;;23.40;90.90;;;;;;5070942;28;20485;-61
2023/07/25 12:31:18;;;;;;;28.53;27.10;;;23.40;90.90;;;;;;5070976;28;20443;-62